sensor_id;sensor_type;location;lat;lon;timestamp;P1;durP1;ratioP1;P2;durP2;ratioP2
19891;SDS011;10108;50.142;8.724;2023-12-20T00:01:37;16.55;;;13.98;;
19891;SDS011;10108;50.142;8.724;2023-12-20T00:04:03;18.17;;;14.82;;
19891;SDS011;10108;50.142;8.724;2023-12-20T00:06:30;22.35;;;14.38;;
19891;SDS011;10108;50.142;8.724;2023-12-20T00:08:56;20.85;;;14.88;;
19891;SDS011;10108;50.142;8.724;2023-12-20T00:11:23;20.67;;;15.07;;
19891;SDS011;10108;50.142;8.724;2023-12-20T00:13:49;18.88;;;13.70;;
19891;SDS011;10108;50.142;8.724;2023-12-20T00:16:16;18.02;;;13.52;;
19891;SDS011;10108;50.142;8.724;2023-12-20T00:18:42;18.67;;;13.95;;
19891;SDS011;10108;50.142;8.724;2023-12-20T00:21:08;17.35;;;13.27;;
19891;SDS011;10108;50.142;8.724;2023-12-20T00:23:34;16.08;;;13.30;;
19891;SDS011;10108;50.142;8.724;2023-12-20T00:26:01;18.08;;;13.30;;
19891;SDS011;10108;50.142;8.724;2023-12-20T00:28:27;20.48;;;13.65;;
19891;SDS011;10108;50.142;8.724;2023-12-20T00:30:53;18.42;;;12.93;;
19891;SDS011;10108;50.142;8.724;2023-12-20T00:33:19;16.70;;;13.07;;
19891;SDS011;10108;50.142;8.724;2023-12-20T00:35:45;16.60;;;12.60;;
19891;SDS011;10108;50.142;8.724;2023-12-20T00:38:11;17.65;;;12.50;;
19891;SDS011;10108;50.142;8.724;2023-12-20T00:40:38;14.70;;;11.95;;
19891;SDS011;10108;50.142;8.724;2023-12-20T00:43:04;16.48;;;12.40;;
19891;SDS011;10108;50.142;8.724;2023-12-20T00:45:30;16.98;;;12.10;;
19891;SDS011;10108;50.142;8.724;2023-12-20T00:47:59;15.75;;;12.05;;
19891;SDS011;10108;50.142;8.724;2023-12-20T00:50:25;15.75;;;12.43;;
19891;SDS011;10108;50.142;8.724;2023-12-20T00:52:52;16.70;;;12.20;;
19891;SDS011;10108;50.142;8.724;2023-12-20T00:55:18;16.25;;;11.98;;
19891;SDS011;10108;50.142;8.724;2023-12-20T00:57:44;18.73;;;12.30;;
19891;SDS011;10108;50.142;8.724;2023-12-20T01:00:10;16.23;;;11.93;;
19891;SDS011;10108;50.142;8.724;2023-12-20T01:02:36;15.98;;;12.32;;
19891;SDS011;10108;50.142;8.724;2023-12-20T01:05:03;17.08;;;11.90;;
19891;SDS011;10108;50.142;8.724;2023-12-20T01:07:29;14.60;;;11.73;;
19891;SDS011;10108;50.142;8.724;2023-12-20T01:09:55;16.95;;;12.05;;
19891;SDS011;10108;50.142;8.724;2023-12-20T01:12:21;16.70;;;12.95;;
19891;SDS011;10108;50.142;8.724;2023-12-20T01:14:47;16.15;;;12.15;;
19891;SDS011;10108;50.142;8.724;2023-12-20T01:17:13;14.82;;;11.98;;
19891;SDS011;10108;50.142;8.724;2023-12-20T01:19:39;14.98;;;12.20;;
19891;SDS011;10108;50.142;8.724;2023-12-20T01:22:06;15.10;;;11.68;;
19891;SDS011;10108;50.142;8.724;2023-12-20T01:24:32;16.77;;;12.75;;
19891;SDS011;10108;50.142;8.724;2023-12-20T01:26:58;15.98;;;12.18;;
19891;SDS011;10108;50.142;8.724;2023-12-20T01:29:24;15.48;;;12.73;;
19891;SDS011;10108;50.142;8.724;2023-12-20T01:31:50;15.57;;;12.05;;
19891;SDS011;10108;50.142;8.724;2023-12-20T01:34:16;15.70;;;12.27;;
19891;SDS011;10108;50.142;8.724;2023-12-20T01:36:43;13.63;;;12.00;;
19891;SDS011;10108;50.142;8.724;2023-12-20T01:39:09;13.95;;;12.20;;
19891;SDS011;10108;50.142;8.724;2023-12-20T01:41:35;14.88;;;12.73;;
19891;SDS011;10108;50.142;8.724;2023-12-20T01:44:01;16.38;;;12.70;;
19891;SDS011;10108;50.142;8.724;2023-12-20T01:46:27;15.23;;;12.38;;
19891;SDS011;10108;50.142;8.724;2023-12-20T01:48:53;14.45;;;12.85;;
19891;SDS011;10108;50.142;8.724;2023-12-20T01:51:20;15.85;;;12.95;;
19891;SDS011;10108;50.142;8.724;2023-12-20T01:53:46;18.48;;;12.95;;
19891;SDS011;10108;50.142;8.724;2023-12-20T01:56:13;14.73;;;12.38;;
19891;SDS011;10108;50.142;8.724;2023-12-20T01:58:43;14.15;;;12.40;;
19891;SDS011;10108;50.142;8.724;2023-12-20T02:01:11;13.90;;;12.07;;
19891;SDS011;10108;50.142;8.724;2023-12-20T02:03:42;14.93;;;12.30;;
19891;SDS011;10108;50.142;8.724;2023-12-20T02:06:08;14.32;;;12.20;;
19891;SDS011;10108;50.142;8.724;2023-12-20T02:08:35;15.32;;;12.60;;
19891;SDS011;10108;50.142;8.724;2023-12-20T02:11:01;13.88;;;12.38;;
19891;SDS011;10108;50.142;8.724;2023-12-20T02:13:28;15.20;;;12.43;;
19891;SDS011;10108;50.142;8.724;2023-12-20T02:15:54;15.20;;;12.27;;
19891;SDS011;10108;50.142;8.724;2023-12-20T02:18:20;15.20;;;12.52;;
19891;SDS011;10108;50.142;8.724;2023-12-20T02:20:47;14.45;;;12.02;;
19891;SDS011;10108;50.142;8.724;2023-12-20T02:23:13;14.93;;;12.18;;
19891;SDS011;10108;50.142;8.724;2023-12-20T02:25:39;14.45;;;12.20;;
19891;SDS011;10108;50.142;8.724;2023-12-20T02:28:05;14.43;;;11.48;;
19891;SDS011;10108;50.142;8.724;2023-12-20T02:30:32;13.02;;;11.57;;
19891;SDS011;10108;50.142;8.724;2023-12-20T02:33:01;14.32;;;12.07;;
19891;SDS011;10108;50.142;8.724;2023-12-20T02:35:32;13.70;;;12.00;;
19891;SDS011;10108;50.142;8.724;2023-12-20T02:37:58;13.75;;;11.75;;
19891;SDS011;10108;50.142;8.724;2023-12-20T02:40:24;14.52;;;11.77;;
19891;SDS011;10108;50.142;8.724;2023-12-20T02:42:50;13.05;;;10.93;;
19891;SDS011;10108;50.142;8.724;2023-12-20T02:45:16;13.55;;;10.75;;
19891;SDS011;10108;50.142;8.724;2023-12-20T02:47:42;11.90;;;10.32;;
19891;SDS011;10108;50.142;8.724;2023-12-20T02:50:08;15.10;;;10.45;;
19891;SDS011;10108;50.142;8.724;2023-12-20T02:52:34;15.70;;;10.52;;
19891;SDS011;10108;50.142;8.724;2023-12-20T02:55:01;12.15;;;9.98;;
19891;SDS011;10108;50.142;8.724;2023-12-20T02:57:27;12.85;;;10.02;;
19891;SDS011;10108;50.142;8.724;2023-12-20T02:59:53;12.20;;;9.55;;
19891;SDS011;10108;50.142;8.724;2023-12-20T03:02:19;14.20;;;10.00;;
19891;SDS011;10108;50.142;8.724;2023-12-20T03:04:45;12.93;;;9.48;;
19891;SDS011;10108;50.142;8.724;2023-12-20T03:07:11;12.55;;;9.50;;
19891;SDS011;10108;50.142;8.724;2023-12-20T03:09:37;11.70;;;9.50;;
19891;SDS011;10108;50.142;8.724;2023-12-20T03:12:04;13.90;;;10.05;;
19891;SDS011;10108;50.142;8.724;2023-12-20T03:14:30;12.95;;;10.30;;
19891;SDS011;10108;50.142;8.724;2023-12-20T03:16:56;13.35;;;10.13;;
19891;SDS011;10108;50.142;8.724;2023-12-20T03:19:22;12.38;;;9.75;;
19891;SDS011;10108;50.142;8.724;2023-12-20T03:21:48;13.23;;;10.40;;
19891;SDS011;10108;50.142;8.724;2023-12-20T03:24:14;12.45;;;10.00;;
19891;SDS011;10108;50.142;8.724;2023-12-20T03:26:40;11.38;;;9.27;;
19891;SDS011;10108;50.142;8.724;2023-12-20T03:29:07;12.40;;;9.95;;
19891;SDS011;10108;50.142;8.724;2023-12-20T03:31:33;12.18;;;9.77;;
19891;SDS011;10108;50.142;8.724;2023-12-20T03:33:59;11.13;;;9.18;;
19891;SDS011;10108;50.142;8.724;2023-12-20T03:36:25;11.95;;;9.65;;
19891;SDS011;10108;50.142;8.724;2023-12-20T03:38:51;11.20;;;9.38;;
19891;SDS011;10108;50.142;8.724;2023-12-20T03:41:17;11.10;;;9.25;;
19891;SDS011;10108;50.142;8.724;2023-12-20T03:43:43;13.80;;;9.43;;
19891;SDS011;10108;50.142;8.724;2023-12-20T03:46:09;11.60;;;9.25;;
19891;SDS011;10108;50.142;8.724;2023-12-20T03:48:35;11.70;;;9.20;;
19891;SDS011;10108;50.142;8.724;2023-12-20T03:51:01;11.13;;;8.90;;
19891;SDS011;10108;50.142;8.724;2023-12-20T03:53:28;11.38;;;8.80;;
19891;SDS011;10108;50.142;8.724;2023-12-20T03:55:54;12.35;;;8.70;;
19891;SDS011;10108;50.142;8.724;2023-12-20T03:58:20;10.88;;;8.65;;
19891;SDS011;10108;50.142;8.724;2023-12-20T04:00:46;10.60;;;8.50;;
19891;SDS011;10108;50.142;8.724;2023-12-20T04:03:12;9.85;;;8.48;;
19891;SDS011;10108;50.142;8.724;2023-12-20T04:05:42;11.77;;;8.82;;
19891;SDS011;10108;50.142;8.724;2023-12-20T04:08:09;12.38;;;8.55;;
19891;SDS011;10108;50.142;8.724;2023-12-20T04:10:35;10.70;;;8.32;;
19891;SDS011;10108;50.142;8.724;2023-12-20T04:13:03;11.70;;;8.63;;
19891;SDS011;10108;50.142;8.724;2023-12-20T04:15:29;11.48;;;8.77;;
19891;SDS011;10108;50.142;8.724;2023-12-20T04:17:55;10.88;;;8.45;;
19891;SDS011;10108;50.142;8.724;2023-12-20T04:20:22;13.07;;;8.60;;
19891;SDS011;10108;50.142;8.724;2023-12-20T04:22:48;11.15;;;8.43;;
19891;SDS011;10108;50.142;8.724;2023-12-20T04:25:14;12.45;;;8.63;;
19891;SDS011;10108;50.142;8.724;2023-12-20T04:27:40;11.85;;;9.00;;
19891;SDS011;10108;50.142;8.724;2023-12-20T04:30:06;10.90;;;8.70;;
19891;SDS011;10108;50.142;8.724;2023-12-20T04:32:33;10.40;;;7.93;;
19891;SDS011;10108;50.142;8.724;2023-12-20T04:34:59;10.80;;;8.55;;
19891;SDS011;10108;50.142;8.724;2023-12-20T04:37:25;11.98;;;8.40;;
19891;SDS011;10108;50.142;8.724;2023-12-20T04:39:51;11.32;;;8.40;;
19891;SDS011;10108;50.142;8.724;2023-12-20T04:42:17;9.95;;;8.43;;
19891;SDS011;10108;50.142;8.724;2023-12-20T04:44:43;10.27;;;8.27;;
19891;SDS011;10108;50.142;8.724;2023-12-20T04:47:09;11.38;;;8.68;;
19891;SDS011;10108;50.142;8.724;2023-12-20T04:49:35;12.48;;;8.75;;
19891;SDS011;10108;50.142;8.724;2023-12-20T04:52:02;11.13;;;8.50;;
19891;SDS011;10108;50.142;8.724;2023-12-20T04:54:28;11.60;;;8.65;;
19891;SDS011;10108;50.142;8.724;2023-12-20T04:56:54;10.13;;;8.20;;
19891;SDS011;10108;50.142;8.724;2023-12-20T04:59:20;10.50;;;8.07;;
19891;SDS011;10108;50.142;8.724;2023-12-20T05:01:46;11.48;;;8.45;;
19891;SDS011;10108;50.142;8.724;2023-12-20T05:04:13;12.15;;;8.45;;
19891;SDS011;10108;50.142;8.724;2023-12-20T05:06:39;11.50;;;8.10;;
19891;SDS011;10108;50.142;8.724;2023-12-20T05:09:05;12.75;;;8.90;;
19891;SDS011;10108;50.142;8.724;2023-12-20T05:11:31;10.70;;;7.57;;
19891;SDS011;10108;50.142;8.724;2023-12-20T05:13:58;10.95;;;7.70;;
19891;SDS011;10108;50.142;8.724;2023-12-20T05:16:24;10.93;;;8.00;;
19891;SDS011;10108;50.142;8.724;2023-12-20T05:18:50;12.13;;;7.50;;
19891;SDS011;10108;50.142;8.724;2023-12-20T05:21:18;10.35;;;7.50;;
19891;SDS011;10108;50.142;8.724;2023-12-20T05:23:44;11.75;;;7.57;;
19891;SDS011;10108;50.142;8.724;2023-12-20T05:26:10;11.00;;;7.63;;
19891;SDS011;10108;50.142;8.724;2023-12-20T05:28:36;11.93;;;7.20;;
19891;SDS011;10108;50.142;8.724;2023-12-20T05:31:03;10.93;;;7.63;;
19891;SDS011;10108;50.142;8.724;2023-12-20T05:33:29;13.45;;;7.82;;
19891;SDS011;10108;50.142;8.724;2023-12-20T05:35:55;12.48;;;7.57;;
19891;SDS011;10108;50.142;8.724;2023-12-20T05:38:21;13.82;;;7.70;;
19891;SDS011;10108;50.142;8.724;2023-12-20T05:40:47;9.27;;;6.95;;
19891;SDS011;10108;50.142;8.724;2023-12-20T05:43:13;11.13;;;7.22;;
19891;SDS011;10108;50.142;8.724;2023-12-20T05:45:39;11.18;;;7.13;;
19891;SDS011;10108;50.142;8.724;2023-12-20T05:48:05;14.02;;;7.05;;
19891;SDS011;10108;50.142;8.724;2023-12-20T05:50:32;10.93;;;6.50;;
19891;SDS011;10108;50.142;8.724;2023-12-20T05:52:58;12.05;;;6.63;;
19891;SDS011;10108;50.142;8.724;2023-12-20T05:55:24;10.52;;;6.05;;
19891;SDS011;10108;50.142;8.724;2023-12-20T05:57:50;10.73;;;6.10;;
19891;SDS011;10108;50.142;8.724;2023-12-20T06:00:16;12.82;;;6.10;;
19891;SDS011;10108;50.142;8.724;2023-12-20T06:02:43;12.32;;;5.97;;
19891;SDS011;10108;50.142;8.724;2023-12-20T06:05:09;12.25;;;5.88;;
19891;SDS011;10108;50.142;8.724;2023-12-20T06:07:35;11.40;;;6.10;;
19891;SDS011;10108;50.142;8.724;2023-12-20T06:10:01;10.75;;;5.60;;
19891;SDS011;10108;50.142;8.724;2023-12-20T06:12:28;13.85;;;5.40;;
19891;SDS011;10108;50.142;8.724;2023-12-20T06:14:54;12.07;;;5.80;;
19891;SDS011;10108;50.142;8.724;2023-12-20T06:17:20;9.30;;;5.30;;
19891;SDS011;10108;50.142;8.724;2023-12-20T06:19:46;10.68;;;5.35;;
19891;SDS011;10108;50.142;8.724;2023-12-20T06:22:14;11.93;;;5.13;;
19891;SDS011;10108;50.142;8.724;2023-12-20T06:24:41;11.55;;;5.20;;
19891;SDS011;10108;50.142;8.724;2023-12-20T06:27:07;10.52;;;5.18;;
19891;SDS011;10108;50.142;8.724;2023-12-20T06:29:33;9.63;;;5.25;;
19891;SDS011;10108;50.142;8.724;2023-12-20T06:32:00;11.50;;;4.80;;
19891;SDS011;10108;50.142;8.724;2023-12-20T06:34:26;10.35;;;4.80;;
19891;SDS011;10108;50.142;8.724;2023-12-20T06:36:52;11.27;;;5.20;;
19891;SDS011;10108;50.142;8.724;2023-12-20T06:39:18;12.98;;;4.50;;
19891;SDS011;10108;50.142;8.724;2023-12-20T06:41:44;11.73;;;5.32;;
19891;SDS011;10108;50.142;8.724;2023-12-20T06:44:11;10.60;;;4.68;;
19891;SDS011;10108;50.142;8.724;2023-12-20T06:46:37;9.70;;;4.63;;
19891;SDS011;10108;50.142;8.724;2023-12-20T06:49:03;11.02;;;4.72;;
19891;SDS011;10108;50.142;8.724;2023-12-20T06:51:29;12.38;;;4.70;;
19891;SDS011;10108;50.142;8.724;2023-12-20T06:53:56;13.90;;;5.05;;
19891;SDS011;10108;50.142;8.724;2023-12-20T06:56:22;10.23;;;4.50;;
19891;SDS011;10108;50.142;8.724;2023-12-20T06:58:48;11.48;;;4.53;;
19891;SDS011;10108;50.142;8.724;2023-12-20T07:01:15;11.52;;;4.97;;
19891;SDS011;10108;50.142;8.724;2023-12-20T07:03:41;9.98;;;4.43;;
19891;SDS011;10108;50.142;8.724;2023-12-20T07:06:08;12.40;;;4.40;;
19891;SDS011;10108;50.142;8.724;2023-12-20T07:08:34;10.48;;;4.00;;
19891;SDS011;10108;50.142;8.724;2023-12-20T07:11:00;8.75;;;4.00;;
19891;SDS011;10108;50.142;8.724;2023-12-20T07:13:27;10.18;;;4.38;;
19891;SDS011;10108;50.142;8.724;2023-12-20T07:15:53;10.55;;;4.10;;
19891;SDS011;10108;50.142;8.724;2023-12-20T07:18:19;11.15;;;5.00;;
19891;SDS011;10108;50.142;8.724;2023-12-20T07:20:45;5.78;;;3.70;;
19891;SDS011;10108;50.142;8.724;2023-12-20T07:23:11;7.53;;;3.90;;
19891;SDS011;10108;50.142;8.724;2023-12-20T07:25:37;7.47;;;4.00;;
19891;SDS011;10108;50.142;8.724;2023-12-20T07:28:03;11.48;;;4.00;;
19891;SDS011;10108;50.142;8.724;2023-12-20T07:30:30;9.98;;;3.80;;
19891;SDS011;10108;50.142;8.724;2023-12-20T07:32:56;8.85;;;3.95;;
19891;SDS011;10108;50.142;8.724;2023-12-20T07:35:25;7.60;;;3.90;;
19891;SDS011;10108;50.142;8.724;2023-12-20T07:37:51;8.05;;;3.80;;
19891;SDS011;10108;50.142;8.724;2023-12-20T07:40:17;8.13;;;3.80;;
19891;SDS011;10108;50.142;8.724;2023-12-20T07:42:44;9.98;;;4.00;;
19891;SDS011;10108;50.142;8.724;2023-12-20T07:45:10;10.70;;;3.90;;
19891;SDS011;10108;50.142;8.724;2023-12-20T07:47:37;11.65;;;3.90;;
19891;SDS011;10108;50.142;8.724;2023-12-20T07:50:03;11.48;;;4.15;;
19891;SDS011;10108;50.142;8.724;2023-12-20T07:52:30;10.13;;;3.80;;
19891;SDS011;10108;50.142;8.724;2023-12-20T07:54:56;11.75;;;4.03;;
19891;SDS011;10108;50.142;8.724;2023-12-20T07:57:23;9.25;;;3.85;;
19891;SDS011;10108;50.142;8.724;2023-12-20T07:59:49;15.60;;;4.10;;
19891;SDS011;10108;50.142;8.724;2023-12-20T08:02:15;10.52;;;4.13;;
19891;SDS011;10108;50.142;8.724;2023-12-20T08:04:42;8.82;;;4.05;;
19891;SDS011;10108;50.142;8.724;2023-12-20T08:07:08;9.63;;;4.00;;
19891;SDS011;10108;50.142;8.724;2023-12-20T08:09:34;10.38;;;3.60;;
19891;SDS011;10108;50.142;8.724;2023-12-20T08:12:02;12.50;;;4.35;;
19891;SDS011;10108;50.142;8.724;2023-12-20T08:14:28;10.80;;;3.67;;
19891;SDS011;10108;50.142;8.724;2023-12-20T08:16:54;9.05;;;4.00;;
19891;SDS011;10108;50.142;8.724;2023-12-20T08:19:21;10.73;;;3.78;;
19891;SDS011;10108;50.142;8.724;2023-12-20T08:21:47;11.15;;;3.50;;
19891;SDS011;10108;50.142;8.724;2023-12-20T08:24:13;8.68;;;3.80;;
19891;SDS011;10108;50.142;8.724;2023-12-20T08:26:39;9.93;;;3.70;;
19891;SDS011;10108;50.142;8.724;2023-12-20T08:29:05;8.82;;;3.60;;
19891;SDS011;10108;50.142;8.724;2023-12-20T08:31:31;11.45;;;3.47;;
19891;SDS011;10108;50.142;8.724;2023-12-20T08:33:57;9.13;;;3.40;;
19891;SDS011;10108;50.142;8.724;2023-12-20T08:36:23;8.13;;;3.10;;
19891;SDS011;10108;50.142;8.724;2023-12-20T08:38:50;7.68;;;3.38;;
19891;SDS011;10108;50.142;8.724;2023-12-20T08:41:16;9.57;;;3.50;;
19891;SDS011;10108;50.142;8.724;2023-12-20T08:43:43;11.38;;;3.90;;
19891;SDS011;10108;50.142;8.724;2023-12-20T08:46:10;11.82;;;3.45;;
19891;SDS011;10108;50.142;8.724;2023-12-20T08:48:37;6.97;;;3.42;;
19891;SDS011;10108;50.142;8.724;2023-12-20T08:51:03;13.02;;;3.70;;
19891;SDS011;10108;50.142;8.724;2023-12-20T08:53:32;14.77;;;3.20;;
19891;SDS011;10108;50.142;8.724;2023-12-20T08:55:59;8.60;;;3.85;;
19891;SDS011;10108;50.142;8.724;2023-12-20T08:58:27;9.38;;;3.28;;
19891;SDS011;10108;50.142;8.724;2023-12-20T09:00:54;8.48;;;3.50;;
19891;SDS011;10108;50.142;8.724;2023-12-20T09:03:20;7.20;;;3.30;;
19891;SDS011;10108;50.142;8.724;2023-12-20T09:05:46;14.20;;;3.55;;
19891;SDS011;10108;50.142;8.724;2023-12-20T09:08:12;9.40;;;3.63;;
19891;SDS011;10108;50.142;8.724;2023-12-20T09:10:38;9.57;;;3.58;;
19891;SDS011;10108;50.142;8.724;2023-12-20T09:13:04;9.52;;;3.47;;
19891;SDS011;10108;50.142;8.724;2023-12-20T09:15:30;8.63;;;3.47;;
19891;SDS011;10108;50.142;8.724;2023-12-20T09:17:56;10.63;;;3.30;;
19891;SDS011;10108;50.142;8.724;2023-12-20T09:20:23;10.82;;;3.47;;
19891;SDS011;10108;50.142;8.724;2023-12-20T09:22:49;14.85;;;3.25;;
19891;SDS011;10108;50.142;8.724;2023-12-20T09:25:15;15.07;;;3.70;;
19891;SDS011;10108;50.142;8.724;2023-12-20T09:27:43;12.02;;;3.55;;
19891;SDS011;10108;50.142;8.724;2023-12-20T09:30:09;9.30;;;3.47;;
19891;SDS011;10108;50.142;8.724;2023-12-20T09:32:35;9.98;;;3.45;;
19891;SDS011;10108;50.142;8.724;2023-12-20T09:35:02;9.35;;;3.20;;
19891;SDS011;10108;50.142;8.724;2023-12-20T09:37:28;12.13;;;3.45;;
19891;SDS011;10108;50.142;8.724;2023-12-20T09:39:54;7.40;;;3.00;;
19891;SDS011;10108;50.142;8.724;2023-12-20T09:42:23;9.45;;;3.20;;
19891;SDS011;10108;50.142;8.724;2023-12-20T09:44:55;10.27;;;3.40;;
19891;SDS011;10108;50.142;8.724;2023-12-20T09:47:24;9.13;;;3.40;;
19891;SDS011;10108;50.142;8.724;2023-12-20T09:49:50;11.45;;;3.60;;
19891;SDS011;10108;50.142;8.724;2023-12-20T09:52:18;15.38;;;3.85;;
19891;SDS011;10108;50.142;8.724;2023-12-20T09:54:44;9.30;;;3.20;;
19891;SDS011;10108;50.142;8.724;2023-12-20T09:57:13;9.90;;;3.45;;
19891;SDS011;10108;50.142;8.724;2023-12-20T09:59:40;14.35;;;3.63;;
19891;SDS011;10108;50.142;8.724;2023-12-20T10:02:07;10.05;;;3.55;;
19891;SDS011;10108;50.142;8.724;2023-12-20T10:04:38;10.35;;;3.45;;
19891;SDS011;10108;50.142;8.724;2023-12-20T10:07:11;14.85;;;3.50;;
19891;SDS011;10108;50.142;8.724;2023-12-20T10:09:37;11.82;;;3.60;;
19891;SDS011;10108;50.142;8.724;2023-12-20T10:12:04;10.50;;;3.40;;
19891;SDS011;10108;50.142;8.724;2023-12-20T10:14:32;7.35;;;3.55;;
19891;SDS011;10108;50.142;8.724;2023-12-20T10:17:02;11.27;;;3.97;;
19891;SDS011;10108;50.142;8.724;2023-12-20T10:19:29;11.10;;;3.90;;
19891;SDS011;10108;50.142;8.724;2023-12-20T10:21:57;12.60;;;3.60;;
19891;SDS011;10108;50.142;8.724;2023-12-20T10:24:29;10.85;;;3.72;;
19891;SDS011;10108;50.142;8.724;2023-12-20T10:27:03;10.70;;;3.78;;
19891;SDS011;10108;50.142;8.724;2023-12-20T10:29:33;11.65;;;3.80;;
19891;SDS011;10108;50.142;8.724;2023-12-20T10:34:53;12.20;;;4.13;;
19891;SDS011;10108;50.142;8.724;2023-12-20T10:37:20;13.05;;;3.78;;
19891;SDS011;10108;50.142;8.724;2023-12-20T10:39:49;11.73;;;3.65;;
19891;SDS011;10108;50.142;8.724;2023-12-20T10:42:26;11.73;;;3.70;;
19891;SDS011;10108;50.142;8.724;2023-12-20T10:44:52;10.05;;;3.70;;
19891;SDS011;10108;50.142;8.724;2023-12-20T10:47:22;10.00;;;3.90;;
19891;SDS011;10108;50.142;8.724;2023-12-20T10:49:52;10.15;;;3.50;;
19891;SDS011;10108;50.142;8.724;2023-12-20T10:52:19;14.20;;;4.28;;
19891;SDS011;10108;50.142;8.724;2023-12-20T10:54:48;11.15;;;3.97;;
19891;SDS011;10108;50.142;8.724;2023-12-20T10:57:14;12.32;;;3.63;;
19891;SDS011;10108;50.142;8.724;2023-12-20T10:59:44;11.35;;;3.92;;
19891;SDS011;10108;50.142;8.724;2023-12-20T11:02:14;13.93;;;3.33;;
19891;SDS011;10108;50.142;8.724;2023-12-20T11:04:44;12.35;;;3.92;;
19891;SDS011;10108;50.142;8.724;2023-12-20T11:07:21;9.75;;;3.88;;
19891;SDS011;10108;50.142;8.724;2023-12-20T11:09:56;11.50;;;3.72;;
19891;SDS011;10108;50.142;8.724;2023-12-20T11:12:56;12.73;;;4.18;;
19891;SDS011;10108;50.142;8.724;2023-12-20T11:15:30;14.25;;;3.90;;
19891;SDS011;10108;50.142;8.724;2023-12-20T11:17:56;14.80;;;4.07;;
19891;SDS011;10108;50.142;8.724;2023-12-20T11:20:24;17.08;;;3.95;;
19891;SDS011;10108;50.142;8.724;2023-12-20T11:23:05;12.27;;;3.80;;
19891;SDS011;10108;50.142;8.724;2023-12-20T11:25:46;12.48;;;3.85;;
19891;SDS011;10108;50.142;8.724;2023-12-20T11:28:21;13.00;;;4.07;;
19891;SDS011;10108;50.142;8.724;2023-12-20T11:30:55;12.32;;;3.45;;
19891;SDS011;10108;50.142;8.724;2023-12-20T11:33:27;10.18;;;4.00;;
19891;SDS011;10108;50.142;8.724;2023-12-20T11:35:56;12.10;;;3.65;;
19891;SDS011;10108;50.142;8.724;2023-12-20T11:38:25;12.80;;;3.63;;
19891;SDS011;10108;50.142;8.724;2023-12-20T11:40:53;12.52;;;3.70;;
19891;SDS011;10108;50.142;8.724;2023-12-20T11:43:37;9.45;;;3.53;;
19891;SDS011;10108;50.142;8.724;2023-12-20T11:46:04;10.70;;;3.45;;
19891;SDS011;10108;50.142;8.724;2023-12-20T11:48:36;11.43;;;4.18;;
19891;SDS011;10108;50.142;8.724;2023-12-20T11:51:10;13.20;;;3.75;;
19891;SDS011;10108;50.142;8.724;2023-12-20T11:53:37;12.93;;;3.58;;
19891;SDS011;10108;50.142;8.724;2023-12-20T11:56:06;10.35;;;3.28;;
19891;SDS011;10108;50.142;8.724;2023-12-20T11:58:33;9.10;;;3.00;;
19891;SDS011;10108;50.142;8.724;2023-12-20T12:01:00;13.82;;;3.03;;
19891;SDS011;10108;50.142;8.724;2023-12-20T12:03:28;9.20;;;3.20;;
19891;SDS011;10108;50.142;8.724;2023-12-20T12:05:54;14.68;;;3.50;;
19891;SDS011;10108;50.142;8.724;2023-12-20T12:08:21;18.25;;;3.80;;
19891;SDS011;10108;50.142;8.724;2023-12-20T12:10:47;11.18;;;3.40;;
19891;SDS011;10108;50.142;8.724;2023-12-20T12:13:13;12.77;;;3.47;;
19891;SDS011;10108;50.142;8.724;2023-12-20T12:15:40;8.85;;;3.13;;
19891;SDS011;10108;50.142;8.724;2023-12-20T12:18:07;9.88;;;3.50;;
19891;SDS011;10108;50.142;8.724;2023-12-20T12:20:34;12.02;;;3.15;;
19891;SDS011;10108;50.142;8.724;2023-12-20T12:23:00;9.65;;;3.08;;
19891;SDS011;10108;50.142;8.724;2023-12-20T12:25:28;7.78;;;3.00;;
19891;SDS011;10108;50.142;8.724;2023-12-20T12:27:56;8.90;;;3.33;;
19891;SDS011;10108;50.142;8.724;2023-12-20T12:30:23;9.68;;;3.35;;
19891;SDS011;10108;50.142;8.724;2023-12-20T12:32:52;13.02;;;3.65;;
19891;SDS011;10108;50.142;8.724;2023-12-20T12:35:20;11.38;;;3.30;;
19891;SDS011;10108;50.142;8.724;2023-12-20T12:37:46;9.75;;;3.20;;
19891;SDS011;10108;50.142;8.724;2023-12-20T12:40:13;11.50;;;3.28;;
19891;SDS011;10108;50.142;8.724;2023-12-20T12:42:41;7.47;;;3.00;;
19891;SDS011;10108;50.142;8.724;2023-12-20T12:45:09;10.27;;;3.17;;
19891;SDS011;10108;50.142;8.724;2023-12-20T12:47:35;7.57;;;2.97;;
19891;SDS011;10108;50.142;8.724;2023-12-20T12:50:02;9.40;;;3.17;;
19891;SDS011;10108;50.142;8.724;2023-12-20T12:52:28;8.90;;;3.03;;
19891;SDS011;10108;50.142;8.724;2023-12-20T12:54:54;8.60;;;3.33;;
19891;SDS011;10108;50.142;8.724;2023-12-20T12:57:20;10.57;;;3.50;;
19891;SDS011;10108;50.142;8.724;2023-12-20T12:59:46;10.55;;;3.30;;
19891;SDS011;10108;50.142;8.724;2023-12-20T13:02:13;7.35;;;3.13;;
19891;SDS011;10108;50.142;8.724;2023-12-20T13:04:39;13.85;;;3.38;;
19891;SDS011;10108;50.142;8.724;2023-12-20T13:07:07;13.43;;;3.55;;
19891;SDS011;10108;50.142;8.724;2023-12-20T13:09:36;7.15;;;2.97;;
19891;SDS011;10108;50.142;8.724;2023-12-20T13:12:02;11.25;;;2.90;;
19891;SDS011;10108;50.142;8.724;2023-12-20T13:14:31;11.30;;;3.20;;
19891;SDS011;10108;50.142;8.724;2023-12-20T13:16:58;6.47;;;2.70;;
19891;SDS011;10108;50.142;8.724;2023-12-20T13:19:24;11.27;;;3.28;;
19891;SDS011;10108;50.142;8.724;2023-12-20T13:21:51;10.98;;;3.40;;
19891;SDS011;10108;50.142;8.724;2023-12-20T13:24:17;12.75;;;3.30;;
19891;SDS011;10108;50.142;8.724;2023-12-20T13:26:44;12.38;;;3.72;;
19891;SDS011;10108;50.142;8.724;2023-12-20T13:29:10;8.45;;;3.08;;
19891;SDS011;10108;50.142;8.724;2023-12-20T13:31:37;10.30;;;3.10;;
19891;SDS011;10108;50.142;8.724;2023-12-20T13:34:05;12.50;;;3.45;;
19891;SDS011;10108;50.142;8.724;2023-12-20T13:36:32;13.40;;;4.40;;
19891;SDS011;10108;50.142;8.724;2023-12-20T13:38:58;8.55;;;3.28;;
19891;SDS011;10108;50.142;8.724;2023-12-20T13:41:25;6.80;;;3.08;;
19891;SDS011;10108;50.142;8.724;2023-12-20T13:43:51;8.88;;;3.10;;
19891;SDS011;10108;50.142;8.724;2023-12-20T13:46:17;6.10;;;3.30;;
19891;SDS011;10108;50.142;8.724;2023-12-20T13:48:43;14.95;;;4.05;;
19891;SDS011;10108;50.142;8.724;2023-12-20T13:51:10;12.70;;;3.55;;
19891;SDS011;10108;50.142;8.724;2023-12-20T13:53:36;8.63;;;3.08;;
19891;SDS011;10108;50.142;8.724;2023-12-20T13:56:04;11.10;;;3.10;;
19891;SDS011;10108;50.142;8.724;2023-12-20T13:58:30;11.85;;;3.75;;
19891;SDS011;10108;50.142;8.724;2023-12-20T14:00:56;10.18;;;3.28;;
19891;SDS011;10108;50.142;8.724;2023-12-20T14:03:22;8.70;;;3.42;;
19891;SDS011;10108;50.142;8.724;2023-12-20T14:05:48;9.18;;;3.45;;
19891;SDS011;10108;50.142;8.724;2023-12-20T14:08:14;11.23;;;3.65;;
19891;SDS011;10108;50.142;8.724;2023-12-20T14:10:40;8.63;;;3.03;;
19891;SDS011;10108;50.142;8.724;2023-12-20T14:13:07;11.80;;;3.65;;
19891;SDS011;10108;50.142;8.724;2023-12-20T14:15:33;10.95;;;3.95;;
19891;SDS011;10108;50.142;8.724;2023-12-20T14:18:05;10.20;;;3.38;;
19891;SDS011;10108;50.142;8.724;2023-12-20T14:20:33;11.45;;;3.58;;
19891;SDS011;10108;50.142;8.724;2023-12-20T14:23:00;11.07;;;3.58;;
19891;SDS011;10108;50.142;8.724;2023-12-20T14:25:27;16.60;;;3.75;;
19891;SDS011;10108;50.142;8.724;2023-12-20T14:27:53;7.63;;;3.38;;
19891;SDS011;10108;50.142;8.724;2023-12-20T14:30:19;13.63;;;3.88;;
19891;SDS011;10108;50.142;8.724;2023-12-20T14:32:46;8.07;;;3.22;;
19891;SDS011;10108;50.142;8.724;2023-12-20T14:35:13;10.15;;;3.03;;